Time;durP1;ratioP1;P1;durP2;ratioP2;P2;SDS_P1;SDS_P2;PMS_P1;PMS_P2;Temp;Humidity;BMP_temperature;BMP_pressure;BME280_temperature;BME280_humidity;BME280_pressure;Samples;Min_cycle;Max_cycle;Signal;HPM_P1;HPM_P2
2022/11/03 00:01:31;;;;;;;4.40;1.50;;;11.50;99.90;;;;;;5116252;27;20118;-71
2022/11/03 00:03:57;;;;;;;5.65;1.85;;;11.50;99.90;;;;;;5132201;27;20051;-71
2022/11/03 00:06:23;;;;;;;5.15;1.55;;;11.50;99.90;;;;;;5141324;27;20383;-71
2022/11/03 00:08:48;;;;;;;4.03;1.60;;;11.60;99.90;;;;;;5132062;27;20054;-71
2022/11/03 00:11:14;;;;;;;5.68;1.45;;;11.60;99.90;;;;;;5136037;27;20050;-71
2022/11/03 00:13:41;;;;;;;4.15;1.10;;;11.60;99.90;;;;;;5132961;27;20046;-71
2022/11/03 00:16:09;;;;;;;3.72;1.15;;;11.70;99.90;;;;;;5138390;27;20047;-70
2022/11/03 00:18:35;;;;;;;3.70;1.50;;;11.70;99.90;;;;;;5123205;27;20102;-71
2022/11/03 00:21:04;;;;;;;5.30;1.63;;;11.70;99.90;;;;;;5144274;27;20042;-71
2022/11/03 00:23:32;;;;;;;7.20;1.33;;;11.80;99.90;;;;;;5140253;27;20478;-72
2022/11/03 00:26:16;;;;;;;5.72;1.80;;;11.80;99.90;;;;;;5122082;27;20065;-70
2022/11/03 00:28:44;;;;;;;6.63;1.80;;;11.80;99.90;;;;;;5114033;27;20514;-71
2022/11/03 00:31:12;;;;;;;6.20;1.70;;;11.60;99.90;;;;;;5142514;27;20035;-70
2022/11/03 00:33:39;;;;;;;5.43;1.55;;;11.70;99.90;;;;;;5140866;27;20226;-71
2022/11/03 00:36:06;;;;;;;3.88;1.33;;;11.70;99.90;;;;;;5136032;27;20407;-71
2022/11/03 00:38:32;;;;;;;5.15;1.30;;;11.60;99.90;;;;;;5138539;27;20082;-71
2022/11/03 00:41:00;;;;;;;4.63;1.70;;;11.70;99.90;;;;;;5131891;27;20588;-71
2022/11/03 00:43:27;;;;;;;4.57;1.65;;;11.60;99.90;;;;;;5117707;27;20043;-71
2022/11/03 00:45:54;;;;;;;3.85;1.30;;;11.60;99.90;;;;;;5146301;27;20499;-70
2022/11/03 00:48:29;;;;;;;5.80;1.25;;;11.60;99.90;;;;;;5135287;27;20118;-71
2022/11/03 00:51:10;;;;;;;4.00;1.63;;;11.80;99.90;;;;;;5132354;27;20104;-71
2022/11/03 00:53:43;;;;;;;4.15;1.23;;;11.50;99.90;;;;;;5133927;27;20054;-70
2022/11/03 00:56:12;;;;;;;5.57;1.90;;;11.60;99.90;;;;;;5131848;27;20047;-71
2022/11/03 00:58:39;;;;;;;4.40;1.42;;;11.60;99.90;;;;;;5131967;27;20070;-71
2022/11/03 01:01:16;;;;;;;5.57;1.27;;;11.60;99.90;;;;;;5131635;27;20039;-71
2022/11/03 01:09:14;;;;;;;6.70;1.95;;;11.50;99.90;;;;;;5139156;27;20906;-70
2022/11/03 01:11:42;;;;;;;6.18;1.50;;;11.50;99.90;;;;;;5147863;27;20043;-71
2022/11/03 01:14:10;;;;;;;7.97;1.65;;;11.50;99.90;;;;;;5136701;27;20043;-71
2022/11/03 01:16:35;;;;;;;6.03;1.77;;;11.50;99.90;;;;;;5134056;27;20509;-71
2022/11/03 01:19:01;;;;;;;5.85;1.55;;;11.50;99.90;;;;;;5149508;27;20047;-71
2022/11/03 01:21:27;;;;;;;3.25;1.55;;;11.50;99.90;;;;;;5137215;27;20107;-70
2022/11/03 01:23:53;;;;;;;6.05;1.63;;;11.50;99.90;;;;;;5119432;28;20046;-70
2022/11/03 01:26:18;;;;;;;8.05;1.63;;;11.50;99.90;;;;;;5131556;27;20126;-71
2022/11/03 01:28:46;;;;;;;5.82;1.27;;;11.50;99.90;;;;;;5131660;27;20353;-71
2022/11/03 01:31:18;;;;;;;4.13;1.65;;;11.50;99.90;;;;;;5131387;27;20057;-70
2022/11/03 01:33:46;;;;;;;6.45;1.70;;;11.50;99.90;;;;;;5137131;27;20090;-70
2022/11/03 01:36:13;;;;;;;7.45;1.45;;;11.60;99.90;;;;;;5131578;27;20395;-71
2022/11/03 01:38:39;;;;;;;9.98;1.50;;;11.60;99.90;;;;;;5131842;27;20055;-71
2022/11/03 01:41:08;;;;;;;3.65;1.38;;;11.50;99.90;;;;;;5149905;27;20047;-70
2022/11/03 01:43:36;;;;;;;5.45;1.67;;;11.50;99.90;;;;;;5142718;27;20384;-71
2022/11/03 01:46:26;;;;;;;5.38;1.55;;;11.50;99.90;;;;;;5135523;27;20108;-70
2022/11/03 01:49:12;;;;;;;5.20;1.85;;;11.50;99.90;;;;;;5146844;27;20421;-71
2022/11/03 01:51:39;;;;;;;6.15;1.60;;;11.50;99.90;;;;;;5138280;27;20071;-71
2022/11/03 01:54:09;;;;;;;5.22;1.50;;;11.50;99.90;;;;;;5147885;27;20114;-71
2022/11/03 01:56:39;;;;;;;7.15;1.40;;;11.50;99.90;;;;;;5135335;27;20059;-71
2022/11/03 01:59:05;;;;;;;5.00;1.67;;;11.50;99.90;;;;;;5135493;27;20040;-71
2022/11/03 02:01:31;;;;;;;5.68;1.95;;;11.50;99.90;;;;;;5119987;27;20045;-71
2022/11/03 02:04:03;;;;;;;5.47;1.60;;;11.50;99.90;;;;;;5154380;27;20059;-71
2022/11/03 02:06:29;;;;;;;6.47;1.60;;;11.50;99.90;;;;;;5148410;27;20043;-70
2022/11/03 02:09:02;;;;;;;4.50;1.50;;;11.40;99.90;;;;;;5135064;27;20231;-70
2022/11/03 02:14:14;;;;;;;5.38;1.70;;;11.50;99.90;;;;;;5146805;27;20544;-70
2022/11/03 02:16:44;;;;;;;9.43;1.65;;;11.60;99.90;;;;;;5139391;27;20526;-70
2022/11/03 02:19:38;;;;;;;6.32;1.50;;;11.60;99.90;;;;;;5151224;27;20438;-71
2022/11/03 02:22:43;;;;;;;7.05;1.65;;;11.60;99.90;;;;;;5133752;27;20484;-70
2022/11/03 02:25:43;;;;;;;5.55;1.60;;;11.60;99.90;;;;;;5133230;27;20500;-70
2022/11/03 02:28:11;;;;;;;4.35;1.10;;;11.50;99.90;;;;;;5134599;27;20100;-70
2022/11/03 02:30:45;;;;;;;6.68;1.77;;;11.50;99.90;;;;;;5139090;27;20042;-70
2022/11/03 02:33:26;;;;;;;5.30;1.55;;;11.50;99.90;;;;;;5147654;27;20043;-70
2022/11/03 02:36:14;;;;;;;3.55;1.35;;;11.50;99.90;;;;;;5134633;27;20047;-70
2022/11/03 02:38:53;;;;;;;5.50;1.42;;;11.50;99.90;;;;;;5134149;27;20507;-70
2022/11/03 02:41:20;;;;;;;5.18;1.50;;;11.40;99.90;;;;;;5134489;27;20117;-70
2022/11/03 02:43:47;;;;;;;7.05;2.00;;;11.40;99.90;;;;;;5134328;27;20054;-70
2022/11/03 02:46:15;;;;;;;4.03;1.40;;;11.40;99.90;;;;;;5116125;27;20047;-71
2022/11/03 02:48:40;;;;;;;5.30;1.85;;;11.30;99.90;;;;;;5147750;27;20390;-70
2022/11/03 02:51:06;;;;;;;7.22;2.40;;;11.30;99.90;;;;;;5116358;27;20051;-70
2022/11/03 02:53:38;;;;;;;6.20;1.35;;;11.30;99.90;;;;;;5133569;27;20074;-70
2022/11/03 02:56:12;;;;;;;7.30;1.60;;;11.20;99.90;;;;;;5133712;27;20086;-70
2022/11/03 02:58:50;;;;;;;6.97;1.63;;;11.20;99.90;;;;;;5134180;27;20047;-70
2022/11/03 03:01:23;;;;;;;4.57;1.58;;;11.20;99.90;;;;;;5133897;27;20101;-69
2022/11/03 03:04:02;;;;;;;6.50;1.70;;;11.10;99.90;;;;;;5115477;27;20051;-70
2022/11/03 03:06:54;;;;;;;6.10;1.85;;;11.10;99.90;;;;;;5134226;27;20047;-69
2022/11/03 03:09:24;;;;;;;3.63;1.50;;;11.10;99.90;;;;;;5122528;27;20568;-69
2022/11/03 03:11:52;;;;;;;4.20;1.50;;;11.10;99.90;;;;;;5134049;27;20445;-70
2022/11/03 03:14:26;;;;;;;5.72;1.33;;;11.10;99.90;;;;;;5121793;27;20045;-70
2022/11/03 03:17:21;;;;;;;4.88;1.40;;;11.10;99.90;;;;;;5148445;27;20575;-70
2022/11/03 03:19:46;;;;;;;5.97;1.90;;;11.10;99.90;;;;;;5122660;27;20053;-70
2022/11/03 03:22:27;;;;;;;6.43;1.70;;;11.10;99.90;;;;;;5127708;27;20039;-70
2022/11/03 03:24:55;;;;;;;5.18;1.88;;;11.10;99.90;;;;;;5133603;27;20097;-70
2022/11/03 03:27:24;;;;;;;4.85;1.75;;;11.00;99.90;;;;;;5141164;27;20042;-70
2022/11/03 03:29:55;;;;;;;5.22;1.50;;;11.10;99.90;;;;;;5134601;27;20050;-70
2022/11/03 03:32:24;;;;;;;4.05;1.45;;;11.00;99.90;;;;;;5140552;27;20047;-70
2022/11/03 03:34:51;;;;;;;6.30;1.48;;;11.00;99.90;;;;;;5115108;27;20051;-70
2022/11/03 03:37:20;;;;;;;6.45;1.58;;;11.00;99.90;;;;;;5148225;27;20093;-70
2022/11/03 03:39:50;;;;;;;3.60;1.30;;;11.00;99.90;;;;;;5133521;27;20491;-70
2022/11/03 03:42:19;;;;;;;5.75;1.77;;;11.10;99.90;;;;;;5142797;27;20042;-70
2022/11/03 03:44:46;;;;;;;6.93;1.70;;;11.20;99.90;;;;;;5137571;27;20536;-70
2022/11/03 03:47:32;;;;;;;4.03;1.40;;;11.10;99.90;;;;;;5145451;27;20112;-70
2022/11/03 03:49:59;;;;;;;4.82;1.27;;;11.10;99.90;;;;;;5133716;27;20047;-70
2022/11/03 03:52:26;;;;;;;3.00;1.42;;;11.20;99.90;;;;;;5132638;27;20043;-70
2022/11/03 03:54:53;;;;;;;3.78;1.60;;;11.20;99.90;;;;;;5133593;27;20043;-70
2022/11/03 03:57:22;;;;;;;4.65;1.42;;;11.20;99.90;;;;;;5138244;27;20043;-70
2022/11/03 03:59:47;;;;;;;5.72;1.52;;;11.30;99.90;;;;;;5132671;27;20057;-70
2022/11/03 04:02:13;;;;;;;5.95;1.60;;;11.30;99.90;;;;;;5139449;27;20063;-70
2022/11/03 04:04:39;;;;;;;6.00;1.30;;;11.30;99.90;;;;;;5132957;27;20130;-70
2022/11/03 04:09:50;;;;;;;4.43;1.42;;;11.20;99.90;;;;;;5141206;27;20100;-70
2022/11/03 04:23:17;;;;;;;5.72;1.77;;;11.00;99.90;;;;;;5146421;27;20078;-70
2022/11/03 04:25:48;;;;;;;3.35;1.30;;;11.00;99.90;;;;;;5144983;27;20046;-70
2022/11/03 04:28:14;;;;;;;4.15;1.58;;;10.90;99.90;;;;;;5124735;27;20373;-70
2022/11/03 04:30:40;;;;;;;3.35;1.25;;;10.90;99.90;;;;;;5134884;27;20047;-70
2022/11/03 04:33:21;;;;;;;6.25;1.50;;;10.90;99.90;;;;;;5121828;27;20057;-70
2022/11/03 04:35:47;;;;;;;4.18;1.42;;;10.90;99.90;;;;;;5134592;27;20827;-70
2022/11/03 04:38:13;;;;;;;4.00;1.35;;;10.80;99.90;;;;;;5136681;27;20115;-70
2022/11/03 04:40:43;;;;;;;5.68;1.73;;;10.80;99.90;;;;;;5131943;27;20058;-70
2022/11/03 04:43:17;;;;;;;6.68;1.90;;;10.90;99.90;;;;;;5114215;27;20051;-70
2022/11/03 04:45:45;;;;;;;7.57;1.20;;;10.80;99.90;;;;;;5132439;27;20491;-70
2022/11/03 04:48:24;;;;;;;6.10;1.50;;;10.90;99.90;;;;;;5141553;27;20086;-70
2022/11/03 04:50:54;;;;;;;3.88;1.30;;;10.90;99.90;;;;;;5115679;27;20522;-70
2022/11/03 04:53:21;;;;;;;5.70;1.75;;;10.90;99.90;;;;;;5138752;27;20034;-70
2022/11/03 04:55:50;;;;;;;5.40;1.98;;;10.90;99.90;;;;;;5135252;27;20177;-70
2022/11/03 04:58:21;;;;;;;5.28;1.70;;;10.80;99.90;;;;;;5132326;27;20047;-70
2022/11/03 05:00:53;;;;;;;5.47;1.98;;;10.90;99.90;;;;;;5140742;27;20376;-70
2022/11/03 05:03:24;;;;;;;7.00;1.58;;;10.90;99.90;;;;;;5144621;27;20100;-70
2022/11/03 05:05:51;;;;;;;4.18;1.38;;;10.90;99.90;;;;;;5132048;27;20491;-70
2022/11/03 05:08:18;;;;;;;4.97;1.58;;;10.80;99.90;;;;;;5138045;27;20046;-70
2022/11/03 05:10:44;;;;;;;5.05;1.52;;;10.90;99.90;;;;;;5151901;27;20046;-70
2022/11/03 05:13:27;;;;;;;2.22;1.25;;;10.80;99.90;;;;;;5131686;27;20051;-70
2022/11/03 05:16:04;;;;;;;4.85;1.45;;;10.80;99.90;;;;;;5132025;27;20043;-70
2022/11/03 05:18:37;;;;;;;4.15;1.35;;;10.90;99.90;;;;;;5134719;27;20163;-69
2022/11/03 05:21:06;;;;;;;6.90;1.60;;;10.90;99.90;;;;;;5135835;27;20047;-70
2022/11/03 05:23:43;;;;;;;5.15;1.45;;;10.90;99.90;;;;;;5135567;27;20043;-70
2022/11/03 05:26:18;;;;;;;5.72;1.42;;;10.90;99.90;;;;;;5148970;27;20084;-69
2022/11/03 05:28:59;;;;;;;3.92;1.30;;;10.90;99.90;;;;;;5150478;27;20402;-70
2022/11/03 05:31:28;;;;;;;5.03;1.88;;;10.90;99.90;;;;;;5138730;27;20404;-70
2022/11/03 05:33:58;;;;;;;5.82;1.40;;;10.90;99.90;;;;;;5145747;27;20073;-70
2022/11/03 05:36:28;;;;;;;4.20;1.80;;;11.00;99.90;;;;;;5117344;27;20054;-71
2022/11/03 05:39:00;;;;;;;5.85;1.40;;;10.90;99.90;;;;;;5135653;27;20116;-70
2022/11/03 05:41:28;;;;;;;4.53;1.58;;;11.00;99.90;;;;;;5135626;27;20392;-70
2022/11/03 05:44:01;;;;;;;6.68;1.70;;;10.90;99.90;;;;;;5136013;27;20061;-70
2022/11/03 05:46:30;;;;;;;4.40;1.40;;;10.90;99.90;;;;;;5138674;27;20402;-70
2022/11/03 05:48:56;;;;;;;6.18;1.48;;;11.00;99.90;;;;;;5146766;27;20050;-70
2022/11/03 05:51:26;;;;;;;6.43;1.60;;;11.00;99.90;;;;;;5146022;27;20043;-70
2022/11/03 05:53:56;;;;;;;5.72;1.73;;;11.00;99.90;;;;;;5136014;27;20047;-70
2022/11/03 05:56:24;;;;;;;4.40;1.52;;;11.00;99.90;;;;;;5136747;27;20398;-71
2022/11/03 05:58:53;;;;;;;5.15;1.63;;;11.00;99.90;;;;;;5135452;27;20491;-70
2022/11/03 06:01:27;;;;;;;4.38;2.03;;;11.00;99.90;;;;;;5134876;27;20046;-70
2022/11/03 06:03:53;;;;;;;4.93;1.33;;;11.10;99.90;;;;;;5134817;27;20092;-70
2022/11/03 06:06:28;;;;;;;4.07;1.38;;;11.10;99.90;;;;;;5140513;27;20046;-70
2022/11/03 06:08:56;;;;;;;3.90;1.25;;;11.10;99.90;;;;;;5144845;27;20122;-70
2022/11/03 06:11:27;;;;;;;3.70;1.63;;;11.10;99.90;;;;;;5140110;27;20087;-70
2022/11/03 06:13:56;;;;;;;4.85;1.83;;;11.10;99.90;;;;;;5148357;27;20432;-71
2022/11/03 06:16:35;;;;;;;3.67;1.40;;;11.10;99.90;;;;;;5142896;27;20042;-70
2022/11/03 06:19:14;;;;;;;7.30;1.60;;;11.10;99.90;;;;;;5135058;27;20479;-70
2022/11/03 06:21:40;;;;;;;3.90;1.55;;;11.10;99.90;;;;;;5116370;27;20051;-71
2022/11/03 06:24:10;;;;;;;2.85;1.40;;;11.00;99.90;;;;;;5138129;27;20368;-70
2022/11/03 06:26:35;;;;;;;3.88;1.40;;;11.00;99.90;;;;;;5134530;27;20571;-70
2022/11/03 06:29:01;;;;;;;5.47;1.40;;;11.00;99.90;;;;;;5145527;27;20035;-70
2022/11/03 06:31:29;;;;;;;4.57;1.65;;;11.00;99.90;;;;;;5142701;27;20488;-70
2022/11/03 06:33:57;;;;;;;4.25;1.13;;;11.00;99.90;;;;;;5134601;27;20055;-70
2022/11/03 06:36:31;;;;;;;5.10;2.13;;;11.00;99.90;;;;;;5140927;27;20415;-71
2022/11/03 06:39:00;;;;;;;6.53;1.60;;;11.00;99.90;;;;;;5133883;27;20072;-70
2022/11/03 06:41:29;;;;;;;7.88;1.50;;;10.90;99.90;;;;;;5134373;27;20042;-71
2022/11/03 06:44:00;;;;;;;5.03;1.50;;;10.90;99.90;;;;;;5153264;27;20054;-71
2022/11/03 06:46:26;;;;;;;5.30;1.85;;;10.90;99.90;;;;;;5152103;27;20046;-71
2022/11/03 06:48:56;;;;;;;3.80;1.80;;;10.90;99.90;;;;;;5142609;27;20396;-71
2022/11/03 06:51:25;;;;;;;3.80;1.63;;;10.90;99.90;;;;;;5116223;27;20055;-70
2022/11/03 06:53:53;;;;;;;6.32;1.65;;;10.80;99.90;;;;;;5133945;27;20083;-70
2022/11/03 06:56:23;;;;;;;6.40;1.65;;;10.80;99.90;;;;;;5133903;27;20039;-70
2022/11/03 06:58:51;;;;;;;4.82;1.98;;;10.80;99.90;;;;;;5133957;27;20043;-70
2022/11/03 07:01:18;;;;;;;4.53;1.60;;;10.80;99.90;;;;;;5142577;27;20495;-70
2022/11/03 07:03:45;;;;;;;4.65;1.63;;;10.80;99.90;;;;;;5122123;27;20445;-70
2022/11/03 07:06:23;;;;;;;4.97;1.75;;;10.80;99.90;;;;;;5120643;27;20047;-70
2022/11/03 07:08:53;;;;;;;4.05;1.58;;;10.80;99.90;;;;;;5115823;27;20404;-70
2022/11/03 07:11:24;;;;;;;4.50;1.40;;;10.80;99.90;;;;;;5112110;28;20499;-70
2022/11/03 07:13:54;;;;;;;3.70;1.40;;;10.80;99.90;;;;;;5115662;27;20075;-70
2022/11/03 07:16:22;;;;;;;5.85;1.95;;;10.80;99.90;;;;;;5133577;27;20470;-67
2022/11/03 07:18:48;;;;;;;4.55;1.50;;;10.90;99.90;;;;;;5113701;27;20483;-64
2022/11/03 07:21:36;;;;;;;6.53;2.22;;;10.80;99.90;;;;;;5123663;27;20043;-64
2022/11/03 07:24:15;;;;;;;5.78;1.70;;;10.80;99.90;;;;;;5124676;27;20047;-64
2022/11/03 07:26:40;;;;;;;6.57;1.60;;;10.90;99.90;;;;;;5114384;27;20070;-64
2022/11/03 07:29:14;;;;;;;3.53;1.20;;;10.90;99.90;;;;;;5113307;28;20082;-64
2022/11/03 07:31:40;;;;;;;5.47;1.30;;;11.00;99.90;;;;;;5117965;27;20463;-65
2022/11/03 07:34:12;;;;;;;5.05;1.45;;;10.90;99.90;;;;;;5114761;27;20127;-64
2022/11/03 07:36:38;;;;;;;5.53;1.80;;;11.00;99.90;;;;;;5125583;27;20122;-63
2022/11/03 07:39:10;;;;;;;3.28;1.60;;;11.00;99.90;;;;;;5112446;27;20527;-64
2022/11/03 07:41:36;;;;;;;3.95;1.52;;;11.00;99.90;;;;;;5119757;27;20043;-64
2022/11/03 07:44:02;;;;;;;6.25;1.58;;;11.00;99.90;;;;;;5124510;27;20035;-64
2022/11/03 07:46:28;;;;;;;5.20;1.65;;;11.00;99.90;;;;;;5112557;28;20058;-64
2022/11/03 07:49:02;;;;;;;3.75;1.35;;;11.10;99.90;;;;;;5118993;27;20402;-64
2022/11/03 07:51:33;;;;;;;5.63;1.75;;;11.10;99.90;;;;;;5116858;27;20051;-64
2022/11/03 07:54:08;;;;;;;5.07;1.70;;;11.10;99.90;;;;;;5111943;28;20043;-64
2022/11/03 07:56:47;;;;;;;4.00;1.42;;;11.10;99.90;;;;;;5111121;28;20083;-64
2022/11/03 07:59:19;;;;;;;5.10;1.50;;;11.10;99.90;;;;;;5118080;27;20471;-64
2022/11/03 08:01:54;;;;;;;3.63;1.40;;;11.20;99.90;;;;;;5114113;27;20054;-64
2022/11/03 08:04:32;;;;;;;4.50;1.40;;;11.20;99.90;;;;;;5129826;27;20529;-63
2022/11/03 08:06:58;;;;;;;9.85;2.08;;;11.20;99.90;;;;;;5129105;27;20376;-64
2022/11/03 08:09:24;;;;;;;4.25;1.70;;;11.20;99.90;;;;;;5131809;27;20047;-64
2022/11/03 08:11:50;;;;;;;4.18;1.40;;;11.30;99.90;;;;;;5133777;27;20039;-64
2022/11/03 08:14:16;;;;;;;5.40;1.70;;;11.20;99.90;;;;;;5138676;27;20388;-64
2022/11/03 08:16:41;;;;;;;4.22;1.50;;;11.30;99.90;;;;;;5113925;27;20125;-64
2022/11/03 08:19:07;;;;;;;6.75;1.60;;;11.40;99.90;;;;;;5136134;27;20133;-64
2022/11/03 08:21:33;;;;;;;5.35;1.70;;;11.40;99.90;;;;;;5145622;27;20066;-64
2022/11/03 08:23:59;;;;;;;4.97;1.73;;;11.40;99.90;;;;;;5123866;27;20050;-64
2022/11/03 08:26:25;;;;;;;4.50;1.67;;;11.40;99.90;;;;;;5149425;27;20085;-64
2022/11/03 08:28:51;;;;;;;4.53;1.70;;;11.50;99.90;;;;;;5148877;27;20070;-64
2022/11/03 08:31:17;;;;;;;5.10;1.75;;;11.50;99.90;;;;;;5145720;27;20039;-65
2022/11/03 08:33:42;;;;;;;7.40;1.60;;;11.60;99.90;;;;;;5140907;27;20135;-65
2022/11/03 08:36:08;;;;;;;3.33;1.40;;;11.60;99.90;;;;;;5147351;27;20034;-64
2022/11/03 08:38:34;;;;;;;3.90;1.85;;;11.70;99.90;;;;;;5142198;27;20034;-65
2022/11/03 08:41:00;;;;;;;8.68;2.00;;;11.80;99.90;;;;;;5126133;27;20046;-65
2022/11/03 08:43:27;;;;;;;5.60;1.70;;;11.90;99.90;;;;;;5152336;27;20043;-65
2022/11/03 08:45:53;;;;;;;4.40;1.73;;;11.90;99.90;;;;;;5151659;27;20042;-65
2022/11/03 08:48:25;;;;;;;3.92;1.58;;;12.00;99.90;;;;;;5151945;27;20114;-64
2022/11/03 08:50:53;;;;;;;5.75;1.77;;;12.10;99.90;;;;;;5151750;27;20057;-65
2022/11/03 08:53:19;;;;;;;5.65;1.85;;;12.10;99.90;;;;;;5151759;27;20047;-65
2022/11/03 08:55:45;;;;;;;3.17;2.42;;;12.10;99.90;;;;;;5133895;27;20444;-65
2022/11/03 08:58:11;;;;;;;5.45;1.40;;;12.20;99.90;;;;;;5142257;27;20042;-65
2022/11/03 09:00:37;;;;;;;4.85;1.40;;;12.20;99.90;;;;;;5151722;27;20062;-65
2022/11/03 09:03:04;;;;;;;4.38;1.52;;;12.30;99.90;;;;;;5148406;27;20109;-65
2022/11/03 09:05:30;;;;;;;2.72;1.90;;;12.30;99.90;;;;;;5151703;27;20510;-65
2022/11/03 09:07:56;;;;;;;4.18;1.70;;;12.30;99.90;;;;;;5135361;27;20047;-65
2022/11/03 09:10:21;;;;;;;4.60;1.63;;;12.40;99.90;;;;;;5148830;27;20058;-65
2022/11/03 09:12:47;;;;;;;7.55;1.77;;;12.40;99.90;;;;;;5143038;27;20039;-65
2022/11/03 09:15:13;;;;;;;4.72;1.48;;;12.50;99.90;;;;;;5145544;27;20053;-65
2022/11/03 09:17:38;;;;;;;7.93;1.73;;;12.40;99.90;;;;;;5152300;27;20074;-65
2022/11/03 09:20:05;;;;;;;4.57;1.67;;;12.50;99.90;;;;;;5143837;27;20043;-64
2022/11/03 09:22:30;;;;;;;5.53;1.90;;;12.50;99.90;;;;;;5129405;27;20043;-65
2022/11/03 09:24:56;;;;;;;5.63;1.80;;;12.50;99.90;;;;;;5147936;27;20411;-65
2022/11/03 09:27:22;;;;;;;4.70;1.60;;;12.60;99.90;;;;;;5151760;27;20053;-65
2022/11/03 09:29:48;;;;;;;8.02;2.35;;;12.60;99.90;;;;;;5135487;27;20159;-65
2022/11/03 09:32:13;;;;;;;5.20;1.75;;;12.70;99.90;;;;;;5150865;27;20051;-65
2022/11/03 09:34:39;;;;;;;5.43;1.60;;;12.70;99.90;;;;;;5151634;27;20046;-64
2022/11/03 09:37:05;;;;;;;6.10;2.45;;;12.80;99.90;;;;;;5138666;27;20051;-65
2022/11/03 09:39:30;;;;;;;5.25;1.77;;;12.90;99.90;;;;;;5152159;27;20178;-64
2022/11/03 09:41:57;;;;;;;3.85;1.45;;;12.90;99.90;;;;;;5151138;27;20087;-65
2022/11/03 09:44:23;;;;;;;5.65;1.85;;;13.10;99.90;;;;;;5151734;27;20035;-65
2022/11/03 09:46:50;;;;;;;7.07;1.55;;;13.40;99.90;;;;;;5151693;27;20044;-65
2022/11/03 09:49:17;;;;;;;3.45;2.03;;;13.70;99.90;;;;;;5151775;27;20169;-64
2022/11/03 09:51:44;;;;;;;4.28;1.77;;;14.00;99.90;;;;;;5151850;27;20039;-65
2022/11/03 09:54:12;;;;;;;3.72;1.60;;;14.20;99.90;;;;;;5125898;28;20487;-65
2022/11/03 09:56:38;;;;;;;6.22;1.67;;;14.60;99.90;;;;;;5113017;28;20807;-64
2022/11/03 09:59:15;;;;;;;4.90;1.40;;;14.70;99.90;;;;;;5151338;27;20046;-67
2022/11/03 10:01:44;;;;;;;4.85;1.90;;;14.50;99.90;;;;;;5142628;27;20069;-65
2022/11/03 10:04:11;;;;;;;4.38;2.05;;;14.70;99.90;;;;;;5151217;27;20066;-66
2022/11/03 10:06:37;;;;;;;5.63;1.85;;;14.80;99.90;;;;;;5147434;27;20110;-65
2022/11/03 10:09:03;;;;;;;4.40;1.55;;;14.90;99.90;;;;;;5155261;27;20062;-65
2022/11/03 10:11:30;;;;;;;5.05;1.42;;;15.10;99.90;;;;;;5155279;27;20039;-65
2022/11/03 10:13:57;;;;;;;3.88;1.38;;;15.30;99.90;;;;;;5138333;27;20043;-65
2022/11/03 10:16:25;;;;;;;4.70;1.50;;;15.30;99.90;;;;;;5143084;27;20098;-65
2022/11/03 10:18:51;;;;;;;3.92;1.98;;;15.20;99.90;;;;;;5144105;27;20051;-64
2022/11/03 10:21:25;;;;;;;5.55;1.88;;;15.10;99.90;;;;;;5134543;27;20043;-64
2022/11/03 10:23:51;;;;;;;5.38;2.22;;;14.90;99.90;;;;;;5143339;27;20047;-65
2022/11/03 10:26:18;;;;;;;4.90;1.50;;;14.80;99.90;;;;;;5155281;27;20046;-64
2022/11/03 10:29:03;;;;;;;4.75;1.88;;;14.80;99.90;;;;;;5154763;27;20046;-64
2022/11/03 10:31:39;;;;;;;5.28;1.67;;;14.70;99.90;;;;;;5143815;27;20043;-64
2022/11/03 10:34:22;;;;;;;5.60;1.48;;;14.50;99.90;;;;;;5154987;27;20061;-64
2022/11/03 10:36:48;;;;;;;5.95;1.48;;;14.40;99.90;;;;;;5145821;27;20122;-64
2022/11/03 10:39:29;;;;;;;4.00;1.50;;;14.40;99.90;;;;;;5154722;27;20121;-65
2022/11/03 10:41:59;;;;;;;5.43;1.55;;;14.30;99.90;;;;;;5155124;27;20042;-65
2022/11/03 10:44:29;;;;;;;4.70;1.70;;;14.30;99.90;;;;;;5132825;27;20452;-65
2022/11/03 10:46:59;;;;;;;4.68;1.70;;;14.30;99.90;;;;;;5134086;27;20240;-65
2022/11/03 10:49:30;;;;;;;3.67;1.48;;;14.30;99.90;;;;;;5147780;27;20483;-65
2022/11/03 10:52:23;;;;;;;6.30;1.40;;;14.30;99.90;;;;;;5154464;27;20440;-65
2022/11/03 10:54:51;;;;;;;4.57;1.45;;;14.40;99.90;;;;;;5143277;27;20058;-64
2022/11/03 10:57:18;;;;;;;4.65;1.70;;;14.40;99.90;;;;;;5140137;27;20046;-65
2022/11/03 10:59:46;;;;;;;4.88;1.30;;;14.40;99.90;;;;;;5139655;27;20046;-65
2022/11/03 11:02:30;;;;;;;4.95;1.30;;;14.50;99.90;;;;;;5153835;27;20076;-65
2022/11/03 11:05:01;;;;;;;3.85;1.42;;;14.60;99.90;;;;;;5151505;27;20166;-65
2022/11/03 11:07:38;;;;;;;7.35;1.75;;;14.80;99.90;;;;;;5154218;27;20418;-64
2022/11/03 11:10:18;;;;;;;6.80;1.55;;;15.00;99.90;;;;;;5154249;27;20080;-64
2022/11/03 11:13:17;;;;;;;4.35;1.40;;;15.00;99.90;;;;;;5131889;27;20395;-65
2022/11/03 11:16:02;;;;;;;5.07;1.30;;;15.00;99.90;;;;;;5153863;27;20056;-65
2022/11/03 11:18:28;;;;;;;4.82;1.40;;;15.00;99.90;;;;;;5152928;27;20522;-65
2022/11/03 11:21:13;;;;;;;3.25;1.48;;;15.00;99.90;;;;;;5138679;27;20078;-65
2022/11/03 11:23:40;;;;;;;6.22;1.65;;;15.00;99.90;;;;;;5138119;27;20046;-65
2022/11/03 11:26:09;;;;;;;3.28;1.17;;;15.00;99.90;;;;;;5134966;27;20364;-64
2022/11/03 11:28:42;;;;;;;3.58;1.38;;;15.00;99.90;;;;;;5131621;27;20130;-64
2022/11/03 11:31:26;;;;;;;2.95;1.20;;;15.00;99.90;;;;;;5114562;27;20055;-65
2022/11/03 11:34:16;;;;;;;4.45;1.30;;;15.00;99.90;;;;;;5149726;27;20081;-64
2022/11/03 11:36:46;;;;;;;3.63;1.30;;;14.90;99.90;;;;;;5153884;27;20050;-64
2022/11/03 11:39:26;;;;;;;5.53;1.15;;;14.90;99.90;;;;;;5153592;27;20042;-64
2022/11/03 11:42:12;;;;;;;3.90;1.20;;;14.90;99.90;;;;;;5152719;27;20039;-65
2022/11/03 11:44:51;;;;;;;4.22;1.27;;;14.80;99.90;;;;;;5142284;27;20063;-65
2022/11/03 11:47:38;;;;;;;2.95;1.13;;;14.80;99.90;;;;;;5153767;27;20123;-65
2022/11/03 11:50:09;;;;;;;4.32;1.10;;;14.80;99.90;;;;;;5143313;27;20035;-66
2022/11/03 11:52:57;;;;;;;3.97;1.40;;;14.80;99.90;;;;;;5125635;27;20053;-65
2022/11/03 11:55:50;;;;;;;5.07;1.20;;;14.70;99.90;;;;;;5141497;27;20047;-65
2022/11/03 11:58:23;;;;;;;4.22;1.27;;;14.70;99.90;;;;;;5143897;27;20070;-65
2022/11/03 12:01:18;;;;;;;3.53;1.48;;;14.70;99.90;;;;;;5153412;27;20047;-65
2022/11/03 12:03:44;;;;;;;5.35;1.20;;;14.70;99.90;;;;;;5121975;27;20130;-65
2022/11/03 12:06:12;;;;;;;4.53;1.27;;;14.60;99.90;;;;;;5135817;27;20051;-65
2022/11/03 12:08:38;;;;;;;3.65;1.10;;;14.60;99.90;;;;;;5153083;27;20054;-66
2022/11/03 12:11:05;;;;;;;3.35;1.13;;;14.60;99.90;;;;;;5145708;27;20386;-65
2022/11/03 12:13:46;;;;;;;5.35;1.20;;;14.60;99.90;;;;;;5147405;27;20497;-65
2022/11/03 12:16:35;;;;;;;4.40;1.52;;;14.50;99.90;;;;;;5144612;27;20039;-65
2022/11/03 12:19:34;;;;;;;6.63;1.40;;;14.50;99.90;;;;;;5143493;27;20449;-65
2022/11/03 12:22:01;;;;;;;4.25;1.40;;;14.50;99.90;;;;;;5151156;27;20061;-67
2022/11/03 12:24:30;;;;;;;4.25;1.05;;;14.50;99.90;;;;;;5138283;27;20043;-65
2022/11/03 12:26:56;;;;;;;2.83;1.13;;;14.50;99.90;;;;;;5152116;27;20047;-65
2022/11/03 12:29:22;;;;;;;4.63;1.58;;;14.40;99.90;;;;;;5151709;27;20567;-65
2022/11/03 12:31:48;;;;;;;3.50;1.00;;;14.50;99.90;;;;;;5126432;27;20086;-64
2022/11/03 12:34:15;;;;;;;2.45;1.00;;;14.50;99.90;;;;;;5129310;27;20122;-66
2022/11/03 12:36:42;;;;;;;4.22;1.33;;;14.50;99.90;;;;;;5141928;27;20463;-65
2022/11/03 12:39:07;;;;;;;3.97;1.10;;;14.50;99.90;;;;;;5118382;27;20066;-65
2022/11/03 12:41:33;;;;;;;3.97;1.00;;;14.50;99.90;;;;;;5132660;27;20116;-65
2022/11/03 12:43:59;;;;;;;4.13;1.10;;;14.50;99.90;;;;;;5117769;27;20095;-64
2022/11/03 12:46:24;;;;;;;3.08;1.65;;;14.50;99.90;;;;;;5131360;27;20130;-64
2022/11/03 12:48:51;;;;;;;4.50;1.20;;;14.50;99.90;;;;;;5134591;27;20078;-65
2022/11/03 12:51:21;;;;;;;1.70;0.90;;;14.50;99.90;;;;;;5117887;27;20051;-65
2022/11/03 12:53:46;;;;;;;3.67;1.65;;;14.50;99.90;;;;;;5139666;27;20384;-65
2022/11/03 12:56:14;;;;;;;2.80;1.25;;;14.50;99.90;;;;;;5131126;27;20057;-65
2022/11/03 12:58:40;;;;;;;4.25;1.27;;;14.50;99.90;;;;;;5138969;27;20042;-65
2022/11/03 13:01:06;;;;;;;4.13;1.10;;;14.50;99.90;;;;;;5150597;27;20042;-64
2022/11/03 13:03:33;;;;;;;2.67;1.23;;;14.50;99.90;;;;;;5130381;27;20142;-65
2022/11/03 13:06:00;;;;;;;4.15;1.30;;;14.50;99.90;;;;;;5131678;27;20067;-65
2022/11/03 13:08:26;;;;;;;4.53;1.13;;;14.50;99.90;;;;;;5130651;27;20460;-65
2022/11/03 13:10:52;;;;;;;3.92;1.40;;;14.50;99.90;;;;;;5130885;27;20043;-65
2022/11/03 13:13:18;;;;;;;3.28;1.20;;;14.60;99.90;;;;;;5144690;27;20051;-65
2022/11/03 13:15:44;;;;;;;3.53;0.90;;;14.60;99.90;;;;;;5151122;27;20087;-65
2022/11/03 13:18:10;;;;;;;3.78;1.30;;;14.60;99.90;;;;;;5139517;27;20479;-65
2022/11/03 13:20:36;;;;;;;4.43;1.20;;;14.60;99.90;;;;;;5146766;27;20089;-65
2022/11/03 13:23:03;;;;;;;3.30;1.30;;;14.60;99.90;;;;;;5130263;27;20059;-65
2022/11/03 13:25:29;;;;;;;3.92;1.20;;;14.70;99.90;;;;;;5131232;27;20095;-65
2022/11/03 13:27:55;;;;;;;2.75;1.02;;;14.70;99.90;;;;;;5113252;28;20043;-65